sensor_id;sensor_type;location;lat;lon;timestamp;P1;P2;P0
46094;PMS5003;31832;50.746;-2.716;2023-12-20T00:01:38;13;13;
46094;PMS5003;31832;50.746;-2.716;2023-12-20T00:04:04;29;25;
46094;PMS5003;31832;50.746;-2.716;2023-12-20T00:06:30;14;13;
46094;PMS5003;31832;50.746;-2.716;2023-12-20T00:08:55;32;28;
46094;PMS5003;31832;50.746;-2.716;2023-12-20T00:11:20;21;17;
46094;PMS5003;31832;50.746;-2.716;2023-12-20T00:13:46;13;11;
46094;PMS5003;31832;50.746;-2.716;2023-12-20T00:16:11;13;10;
46094;PMS5003;31832;50.746;-2.716;2023-12-20T00:18:36;13;10;
46094;PMS5003;31832;50.746;-2.716;2023-12-20T00:21:02;9;8;
46094;PMS5003;31832;50.746;-2.716;2023-12-20T00:23:27;12;12;
46094;PMS5003;31832;50.746;-2.716;2023-12-20T00:25:53;8;8;
46094;PMS5003;31832;50.746;-2.716;2023-12-20T00:28:19;8;7;
46094;PMS5003;31832;50.746;-2.716;2023-12-20T00:30:44;9;8;
46094;PMS5003;31832;50.746;-2.716;2023-12-20T00:33:09;12;10;
46094;PMS5003;31832;50.746;-2.716;2023-12-20T00:35:34;10;10;
46094;PMS5003;31832;50.746;-2.716;2023-12-20T00:38:00;9;9;
46094;PMS5003;31832;50.746;-2.716;2023-12-20T00:40:25;8;8;
46094;PMS5003;31832;50.746;-2.716;2023-12-20T00:42:51;13;11;
46094;PMS5003;31832;50.746;-2.716;2023-12-20T00:45:16;8;8;
46094;PMS5003;31832;50.746;-2.716;2023-12-20T00:47:42;6;6;
46094;PMS5003;31832;50.746;-2.716;2023-12-20T00:50:08;6;6;
46094;PMS5003;31832;50.746;-2.716;2023-12-20T00:52:33;9;7;
46094;PMS5003;31832;50.746;-2.716;2023-12-20T00:54:59;6;5;
46094;PMS5003;31832;50.746;-2.716;2023-12-20T00:57:24;8;8;
46094;PMS5003;31832;50.746;-2.716;2023-12-20T00:59:49;7;7;
46094;PMS5003;31832;50.746;-2.716;2023-12-20T01:02:15;6;6;
46094;PMS5003;31832;50.746;-2.716;2023-12-20T01:04:40;7;6;
46094;PMS5003;31832;50.746;-2.716;2023-12-20T01:07:06;3;3;
46094;PMS5003;31832;50.746;-2.716;2023-12-20T01:09:31;5;5;
46094;PMS5003;31832;50.746;-2.716;2023-12-20T01:11:57;6;6;
46094;PMS5003;31832;50.746;-2.716;2023-12-20T01:14:23;6;5;
46094;PMS5003;31832;50.746;-2.716;2023-12-20T01:16:48;5;5;
46094;PMS5003;31832;50.746;-2.716;2023-12-20T01:19:14;4;4;
46094;PMS5003;31832;50.746;-2.716;2023-12-20T01:21:40;3;3;
46094;PMS5003;31832;50.746;-2.716;2023-12-20T01:24:05;5;4;
46094;PMS5003;31832;50.746;-2.716;2023-12-20T01:26:30;5;5;
46094;PMS5003;31832;50.746;-2.716;2023-12-20T01:28:55;3;3;
46094;PMS5003;31832;50.746;-2.716;2023-12-20T01:31:21;6;6;
46094;PMS5003;31832;50.746;-2.716;2023-12-20T01:33:46;4;4;
46094;PMS5003;31832;50.746;-2.716;2023-12-20T01:36:12;7;5;
46094;PMS5003;31832;50.746;-2.716;2023-12-20T01:38:37;9;6;
46094;PMS5003;31832;50.746;-2.716;2023-12-20T01:41:03;6;5;
46094;PMS5003;31832;50.746;-2.716;2023-12-20T01:43:29;6;5;
46094;PMS5003;31832;50.746;-2.716;2023-12-20T01:45:53;7;6;
46094;PMS5003;31832;50.746;-2.716;2023-12-20T01:48:19;7;5;
46094;PMS5003;31832;50.746;-2.716;2023-12-20T01:50:44;6;6;
46094;PMS5003;31832;50.746;-2.716;2023-12-20T01:53:10;7;4;
46094;PMS5003;31832;50.746;-2.716;2023-12-20T01:55:35;6;4;
46094;PMS5003;31832;50.746;-2.716;2023-12-20T01:58:00;7;6;
46094;PMS5003;31832;50.746;-2.716;2023-12-20T02:00:26;9;6;
46094;PMS5003;31832;50.746;-2.716;2023-12-20T02:02:51;6;6;
46094;PMS5003;31832;50.746;-2.716;2023-12-20T02:05:17;3;3;
46094;PMS5003;31832;50.746;-2.716;2023-12-20T02:07:42;7;4;
46094;PMS5003;31832;50.746;-2.716;2023-12-20T02:10:08;10;6;
46094;PMS5003;31832;50.746;-2.716;2023-12-20T02:12:33;6;4;
46094;PMS5003;31832;50.746;-2.716;2023-12-20T02:14:58;4;3;
46094;PMS5003;31832;50.746;-2.716;2023-12-20T02:17:24;8;5;
46094;PMS5003;31832;50.746;-2.716;2023-12-20T02:19:49;5;3;
46094;PMS5003;31832;50.746;-2.716;2023-12-20T02:22:15;5;4;
46094;PMS5003;31832;50.746;-2.716;2023-12-20T02:24:41;5;3;
46094;PMS5003;31832;50.746;-2.716;2023-12-20T02:27:06;4;3;
46094;PMS5003;31832;50.746;-2.716;2023-12-20T02:29:32;3;3;
46094;PMS5003;31832;50.746;-2.716;2023-12-20T02:31:57;6;4;
46094;PMS5003;31832;50.746;-2.716;2023-12-20T02:34:22;5;4;
46094;PMS5003;31832;50.746;-2.716;2023-12-20T02:36:48;5;4;
46094;PMS5003;31832;50.746;-2.716;2023-12-20T02:39:13;6;3;
46094;PMS5003;31832;50.746;-2.716;2023-12-20T02:41:38;6;4;
46094;PMS5003;31832;50.746;-2.716;2023-12-20T02:44:04;3;3;
46094;PMS5003;31832;50.746;-2.716;2023-12-20T02:46:29;4;4;
46094;PMS5003;31832;50.746;-2.716;2023-12-20T02:48:54;3;3;
46094;PMS5003;31832;50.746;-2.716;2023-12-20T02:51:20;4;3;
46094;PMS5003;31832;50.746;-2.716;2023-12-20T02:53:45;7;4;
46094;PMS5003;31832;50.746;-2.716;2023-12-20T02:56:10;4;3;
46094;PMS5003;31832;50.746;-2.716;2023-12-20T02:58:36;6;3;
46094;PMS5003;31832;50.746;-2.716;2023-12-20T03:01:02;9;5;
46094;PMS5003;31832;50.746;-2.716;2023-12-20T03:03:27;7;5;
46094;PMS5003;31832;50.746;-2.716;2023-12-20T03:05:53;4;3;
46094;PMS5003;31832;50.746;-2.716;2023-12-20T03:08:18;4;4;
46094;PMS5003;31832;50.746;-2.716;2023-12-20T03:10:43;10;5;
46094;PMS5003;31832;50.746;-2.716;2023-12-20T03:13:09;3;3;
46094;PMS5003;31832;50.746;-2.716;2023-12-20T03:15:34;3;3;
46094;PMS5003;31832;50.746;-2.716;2023-12-20T03:17:59;3;3;
46094;PMS5003;31832;50.746;-2.716;2023-12-20T03:20:25;2;2;
46094;PMS5003;31832;50.746;-2.716;2023-12-20T03:22:51;4;3;
46094;PMS5003;31832;50.746;-2.716;2023-12-20T03:25:16;6;3;
46094;PMS5003;31832;50.746;-2.716;2023-12-20T03:27:42;5;5;
46094;PMS5003;31832;50.746;-2.716;2023-12-20T03:30:07;6;3;
46094;PMS5003;31832;50.746;-2.716;2023-12-20T03:32:33;7;3;
46094;PMS5003;31832;50.746;-2.716;2023-12-20T03:34:59;2;2;
46094;PMS5003;31832;50.746;-2.716;2023-12-20T03:37:24;5;5;
46094;PMS5003;31832;50.746;-2.716;2023-12-20T03:39:49;3;2;
46094;PMS5003;31832;50.746;-2.716;2023-12-20T03:42:15;4;4;
46094;PMS5003;31832;50.746;-2.716;2023-12-20T03:44:40;3;3;
46094;PMS5003;31832;50.746;-2.716;2023-12-20T03:47:06;10;8;
46094;PMS5003;31832;50.746;-2.716;2023-12-20T03:49:32;6;3;
46094;PMS5003;31832;50.746;-2.716;2023-12-20T03:51:57;5;2;
46094;PMS5003;31832;50.746;-2.716;2023-12-20T03:54:23;4;2;
46094;PMS5003;31832;50.746;-2.716;2023-12-20T03:56:48;4;3;
46094;PMS5003;31832;50.746;-2.716;2023-12-20T03:59:13;2;2;
46094;PMS5003;31832;50.746;-2.716;2023-12-20T04:01:39;8;6;
46094;PMS5003;31832;50.746;-2.716;2023-12-20T04:04:04;5;3;
46094;PMS5003;31832;50.746;-2.716;2023-12-20T04:06:30;2;2;
46094;PMS5003;31832;50.746;-2.716;2023-12-20T04:08:55;4;3;
46094;PMS5003;31832;50.746;-2.716;2023-12-20T04:11:21;2;2;
46094;PMS5003;31832;50.746;-2.716;2023-12-20T04:13:46;5;3;
46094;PMS5003;31832;50.746;-2.716;2023-12-20T04:16:12;5;3;
46094;PMS5003;31832;50.746;-2.716;2023-12-20T04:18:37;2;2;
46094;PMS5003;31832;50.746;-2.716;2023-12-20T04:21:03;5;3;
46094;PMS5003;31832;50.746;-2.716;2023-12-20T04:23:28;3;2;
46094;PMS5003;31832;50.746;-2.716;2023-12-20T04:25:54;4;3;
46094;PMS5003;31832;50.746;-2.716;2023-12-20T04:28:19;3;3;
46094;PMS5003;31832;50.746;-2.716;2023-12-20T04:30:45;6;4;
46094;PMS5003;31832;50.746;-2.716;2023-12-20T04:33:10;4;2;
46094;PMS5003;31832;50.746;-2.716;2023-12-20T04:35:36;6;3;
46094;PMS5003;31832;50.746;-2.716;2023-12-20T04:38:02;4;2;
46094;PMS5003;31832;50.746;-2.716;2023-12-20T04:40:28;5;4;
46094;PMS5003;31832;50.746;-2.716;2023-12-20T04:42:53;3;3;
46094;PMS5003;31832;50.746;-2.716;2023-12-20T04:45:18;2;2;
46094;PMS5003;31832;50.746;-2.716;2023-12-20T04:47:44;7;3;
46094;PMS5003;31832;50.746;-2.716;2023-12-20T04:50:09;4;4;
46094;PMS5003;31832;50.746;-2.716;2023-12-20T04:52:35;6;3;
46094;PMS5003;31832;50.746;-2.716;2023-12-20T04:55:00;8;4;
46094;PMS5003;31832;50.746;-2.716;2023-12-20T04:57:25;3;3;
46094;PMS5003;31832;50.746;-2.716;2023-12-20T04:59:50;5;4;
46094;PMS5003;31832;50.746;-2.716;2023-12-20T05:02:16;5;2;
46094;PMS5003;31832;50.746;-2.716;2023-12-20T05:04:41;5;3;
46094;PMS5003;31832;50.746;-2.716;2023-12-20T05:07:07;2;2;
46094;PMS5003;31832;50.746;-2.716;2023-12-20T05:09:32;4;3;
46094;PMS5003;31832;50.746;-2.716;2023-12-20T05:11:57;5;2;
46094;PMS5003;31832;50.746;-2.716;2023-12-20T05:14:23;5;3;
46094;PMS5003;31832;50.746;-2.716;2023-12-20T05:16:49;9;5;
46094;PMS5003;31832;50.746;-2.716;2023-12-20T05:19:14;4;2;
46094;PMS5003;31832;50.746;-2.716;2023-12-20T05:21:39;4;3;
46094;PMS5003;31832;50.746;-2.716;2023-12-20T05:24:05;5;4;
46094;PMS5003;31832;50.746;-2.716;2023-12-20T05:26:30;6;4;
46094;PMS5003;31832;50.746;-2.716;2023-12-20T05:28:56;5;4;
46094;PMS5003;31832;50.746;-2.716;2023-12-20T05:31:21;4;3;
46094;PMS5003;31832;50.746;-2.716;2023-12-20T05:33:47;4;3;
46094;PMS5003;31832;50.746;-2.716;2023-12-20T05:36:12;3;2;
46094;PMS5003;31832;50.746;-2.716;2023-12-20T05:38:38;3;3;
46094;PMS5003;31832;50.746;-2.716;2023-12-20T05:41:03;11;4;
46094;PMS5003;31832;50.746;-2.716;2023-12-20T05:43:29;2;2;
46094;PMS5003;31832;50.746;-2.716;2023-12-20T05:45:53;5;3;
46094;PMS5003;31832;50.746;-2.716;2023-12-20T05:48:19;4;2;
46094;PMS5003;31832;50.746;-2.716;2023-12-20T05:50:44;2;2;
46094;PMS5003;31832;50.746;-2.716;2023-12-20T05:53:10;8;5;
46094;PMS5003;31832;50.746;-2.716;2023-12-20T05:55:36;13;7;
46094;PMS5003;31832;50.746;-2.716;2023-12-20T05:58:01;3;3;
46094;PMS5003;31832;50.746;-2.716;2023-12-20T06:00:27;5;3;
46094;PMS5003;31832;50.746;-2.716;2023-12-20T06:02:52;9;5;
46094;PMS5003;31832;50.746;-2.716;2023-12-20T06:05:18;4;4;
46094;PMS5003;31832;50.746;-2.716;2023-12-20T06:07:44;7;5;
46094;PMS5003;31832;50.746;-2.716;2023-12-20T06:10:09;4;4;
46094;PMS5003;31832;50.746;-2.716;2023-12-20T06:12:34;4;3;
46094;PMS5003;31832;50.746;-2.716;2023-12-20T06:15:01;8;6;
46094;PMS5003;31832;50.746;-2.716;2023-12-20T06:17:25;3;2;
46094;PMS5003;31832;50.746;-2.716;2023-12-20T06:19:51;6;3;
46094;PMS5003;31832;50.746;-2.716;2023-12-20T06:22:17;5;3;
46094;PMS5003;31832;50.746;-2.716;2023-12-20T06:24:42;3;3;
46094;PMS5003;31832;50.746;-2.716;2023-12-20T06:27:08;7;7;
46094;PMS5003;31832;50.746;-2.716;2023-12-20T06:29:33;7;7;
46094;PMS5003;31832;50.746;-2.716;2023-12-20T06:31:58;2;2;
46094;PMS5003;31832;50.746;-2.716;2023-12-20T06:34:23;4;4;
46094;PMS5003;31832;50.746;-2.716;2023-12-20T06:36:49;4;3;
46094;PMS5003;31832;50.746;-2.716;2023-12-20T06:39:14;5;4;
46094;PMS5003;31832;50.746;-2.716;2023-12-20T06:41:39;6;5;
46094;PMS5003;31832;50.746;-2.716;2023-12-20T06:44:05;5;5;
46094;PMS5003;31832;50.746;-2.716;2023-12-20T06:46:31;7;5;
46094;PMS5003;31832;50.746;-2.716;2023-12-20T06:48:56;3;3;
46094;PMS5003;31832;50.746;-2.716;2023-12-20T06:51:22;3;3;
46094;PMS5003;31832;50.746;-2.716;2023-12-20T06:53:47;4;4;
46094;PMS5003;31832;50.746;-2.716;2023-12-20T06:56:12;4;4;
46094;PMS5003;31832;50.746;-2.716;2023-12-20T06:58:38;7;7;
46094;PMS5003;31832;50.746;-2.716;2023-12-20T07:01:03;6;4;
46094;PMS5003;31832;50.746;-2.716;2023-12-20T07:03:29;5;5;
46094;PMS5003;31832;50.746;-2.716;2023-12-20T07:05:55;10;9;
46094;PMS5003;31832;50.746;-2.716;2023-12-20T07:08:21;11;7;
46094;PMS5003;31832;50.746;-2.716;2023-12-20T07:10:45;3;3;
46094;PMS5003;31832;50.746;-2.716;2023-12-20T07:13:11;10;8;
46094;PMS5003;31832;50.746;-2.716;2023-12-20T07:15:37;7;4;
46094;PMS5003;31832;50.746;-2.716;2023-12-20T07:18:02;9;7;
46094;PMS5003;31832;50.746;-2.716;2023-12-20T07:20:27;6;3;
46094;PMS5003;31832;50.746;-2.716;2023-12-20T07:22:58;7;6;
46094;PMS5003;31832;50.746;-2.716;2023-12-20T07:25:17;11;9;
46094;PMS5003;31832;50.746;-2.716;2023-12-20T07:27:43;9;6;
46094;PMS5003;31832;50.746;-2.716;2023-12-20T07:30:10;6;4;
46094;PMS5003;31832;50.746;-2.716;2023-12-20T07:32:36;4;3;
46094;PMS5003;31832;50.746;-2.716;2023-12-20T07:35:00;5;5;
46094;PMS5003;31832;50.746;-2.716;2023-12-20T07:37:26;6;6;
46094;PMS5003;31832;50.746;-2.716;2023-12-20T07:39:52;6;5;
46094;PMS5003;31832;50.746;-2.716;2023-12-20T07:42:17;6;5;
46094;PMS5003;31832;50.746;-2.716;2023-12-20T07:44:43;3;2;
46094;PMS5003;31832;50.746;-2.716;2023-12-20T07:47:08;8;5;
46094;PMS5003;31832;50.746;-2.716;2023-12-20T07:49:34;7;6;
46094;PMS5003;31832;50.746;-2.716;2023-12-20T07:52:00;7;5;
46094;PMS5003;31832;50.746;-2.716;2023-12-20T07:54:25;4;4;
46094;PMS5003;31832;50.746;-2.716;2023-12-20T07:56:51;8;6;
46094;PMS5003;31832;50.746;-2.716;2023-12-20T07:59:17;8;8;
46094;PMS5003;31832;50.746;-2.716;2023-12-20T08:01:42;5;5;
46094;PMS5003;31832;50.746;-2.716;2023-12-20T08:04:07;4;3;
46094;PMS5003;31832;50.746;-2.716;2023-12-20T08:06:33;2;2;
46094;PMS5003;31832;50.746;-2.716;2023-12-20T08:08:57;1;1;
46094;PMS5003;31832;50.746;-2.716;2023-12-20T08:11:23;3;1;
46094;PMS5003;31832;50.746;-2.716;2023-12-20T08:13:48;2;2;
46094;PMS5003;31832;50.746;-2.716;2023-12-20T08:16:13;4;2;
46094;PMS5003;31832;50.746;-2.716;2023-12-20T08:18:39;2;2;
46094;PMS5003;31832;50.746;-2.716;2023-12-20T08:21:04;3;2;
46094;PMS5003;31832;50.746;-2.716;2023-12-20T08:23:29;4;3;
46094;PMS5003;31832;50.746;-2.716;2023-12-20T08:25:54;6;5;
46094;PMS5003;31832;50.746;-2.716;2023-12-20T08:28:20;1;1;
46094;PMS5003;31832;50.746;-2.716;2023-12-20T08:30:45;3;0;
46094;PMS5003;31832;50.746;-2.716;2023-12-20T08:33:10;5;3;
46094;PMS5003;31832;50.746;-2.716;2023-12-20T08:35:35;5;5;
46094;PMS5003;31832;50.746;-2.716;2023-12-20T08:38:01;2;2;
46094;PMS5003;31832;50.746;-2.716;2023-12-20T08:40:26;2;2;
46094;PMS5003;31832;50.746;-2.716;2023-12-20T08:42:52;5;4;
46094;PMS5003;31832;50.746;-2.716;2023-12-20T08:45:17;4;4;
46094;PMS5003;31832;50.746;-2.716;2023-12-20T08:47:42;6;3;
46094;PMS5003;31832;50.746;-2.716;2023-12-20T08:50:08;2;2;
46094;PMS5003;31832;50.746;-2.716;2023-12-20T08:52:33;2;2;
46094;PMS5003;31832;50.746;-2.716;2023-12-20T08:54:58;10;6;
46094;PMS5003;31832;50.746;-2.716;2023-12-20T08:57:23;3;2;
46094;PMS5003;31832;50.746;-2.716;2023-12-20T08:59:48;4;2;
46094;PMS5003;31832;50.746;-2.716;2023-12-20T09:02:14;4;3;
46094;PMS5003;31832;50.746;-2.716;2023-12-20T09:04:39;5;5;
46094;PMS5003;31832;50.746;-2.716;2023-12-20T09:07:04;4;4;
46094;PMS5003;31832;50.746;-2.716;2023-12-20T09:09:29;10;8;
46094;PMS5003;31832;50.746;-2.716;2023-12-20T09:11:55;10;8;
46094;PMS5003;31832;50.746;-2.716;2023-12-20T09:14:20;8;8;
46094;PMS5003;31832;50.746;-2.716;2023-12-20T09:16:46;22;15;
46094;PMS5003;31832;50.746;-2.716;2023-12-20T09:19:12;5;4;
46094;PMS5003;31832;50.746;-2.716;2023-12-20T09:21:37;5;3;
46094;PMS5003;31832;50.746;-2.716;2023-12-20T09:24:03;5;5;
46094;PMS5003;31832;50.746;-2.716;2023-12-20T09:26:28;5;4;
46094;PMS5003;31832;50.746;-2.716;2023-12-20T09:28:53;4;4;
46094;PMS5003;31832;50.746;-2.716;2023-12-20T09:31:18;4;4;
46094;PMS5003;31832;50.746;-2.716;2023-12-20T09:33:44;3;2;
46094;PMS5003;31832;50.746;-2.716;2023-12-20T09:36:09;4;2;
46094;PMS5003;31832;50.746;-2.716;2023-12-20T09:38:34;2;2;
46094;PMS5003;31832;50.746;-2.716;2023-12-20T09:40:59;2;2;
46094;PMS5003;31832;50.746;-2.716;2023-12-20T09:43:25;2;1;
46094;PMS5003;31832;50.746;-2.716;2023-12-20T09:45:51;2;2;
46094;PMS5003;31832;50.746;-2.716;2023-12-20T09:48:17;2;2;
46094;PMS5003;31832;50.746;-2.716;2023-12-20T09:50:41;1;1;
46094;PMS5003;31832;50.746;-2.716;2023-12-20T09:53:07;3;2;
46094;PMS5003;31832;50.746;-2.716;2023-12-20T09:55:31;3;2;
46094;PMS5003;31832;50.746;-2.716;2023-12-20T09:57:56;1;1;
46094;PMS5003;31832;50.746;-2.716;2023-12-20T10:00:22;5;3;
46094;PMS5003;31832;50.746;-2.716;2023-12-20T10:02:49;3;3;
46094;PMS5003;31832;50.746;-2.716;2023-12-20T10:05:15;4;4;
46094;PMS5003;31832;50.746;-2.716;2023-12-20T10:07:37;2;1;
46094;PMS5003;31832;50.746;-2.716;2023-12-20T10:10:03;0;0;
46094;PMS5003;31832;50.746;-2.716;2023-12-20T10:12:29;3;2;
46094;PMS5003;31832;50.746;-2.716;2023-12-20T10:14:54;4;2;
46094;PMS5003;31832;50.746;-2.716;2023-12-20T10:17:19;3;1;
46094;PMS5003;31832;50.746;-2.716;2023-12-20T10:19:45;2;1;
46094;PMS5003;31832;50.746;-2.716;2023-12-20T10:22:10;3;3;
46094;PMS5003;31832;50.746;-2.716;2023-12-20T10:24:36;5;3;
46094;PMS5003;31832;50.746;-2.716;2023-12-20T10:27:02;19;18;
46094;PMS5003;31832;50.746;-2.716;2023-12-20T10:29:27;8;7;
46094;PMS5003;31832;50.746;-2.716;2023-12-20T10:31:52;4;4;
46094;PMS5003;31832;50.746;-2.716;2023-12-20T10:34:17;4;1;
46094;PMS5003;31832;50.746;-2.716;2023-12-20T10:36:42;3;3;
46094;PMS5003;31832;50.746;-2.716;2023-12-20T10:39:08;4;4;
46094;PMS5003;31832;50.746;-2.716;2023-12-20T10:41:33;3;3;
46094;PMS5003;31832;50.746;-2.716;2023-12-20T10:43:58;3;3;
46094;PMS5003;31832;50.746;-2.716;2023-12-20T10:46:23;7;7;
46094;PMS5003;31832;50.746;-2.716;2023-12-20T10:48:49;15;15;
46094;PMS5003;31832;50.746;-2.716;2023-12-20T10:51:17;6;5;
46094;PMS5003;31832;50.746;-2.716;2023-12-20T10:53:39;6;4;
46094;PMS5003;31832;50.746;-2.716;2023-12-20T10:56:05;7;7;
46094;PMS5003;31832;50.746;-2.716;2023-12-20T10:58:30;11;10;
46094;PMS5003;31832;50.746;-2.716;2023-12-20T11:00:57;5;5;
46094;PMS5003;31832;50.746;-2.716;2023-12-20T11:03:20;4;3;
46094;PMS5003;31832;50.746;-2.716;2023-12-20T11:05:46;2;2;
46094;PMS5003;31832;50.746;-2.716;2023-12-20T11:08:12;7;4;
46094;PMS5003;31832;50.746;-2.716;2023-12-20T11:10:37;4;4;
46094;PMS5003;31832;50.746;-2.716;2023-12-20T11:13:03;2;2;
46094;PMS5003;31832;50.746;-2.716;2023-12-20T11:15:26;2;2;
46094;PMS5003;31832;50.746;-2.716;2023-12-20T11:17:54;1;1;
46094;PMS5003;31832;50.746;-2.716;2023-12-20T11:20:17;6;4;
46094;PMS5003;31832;50.746;-2.716;2023-12-20T11:25:08;1;1;
46094;PMS5003;31832;50.746;-2.716;2023-12-20T11:27:33;4;2;
46094;PMS5003;31832;50.746;-2.716;2023-12-20T11:29:58;3;3;
46094;PMS5003;31832;50.746;-2.716;2023-12-20T11:34:50;1;1;
46094;PMS5003;31832;50.746;-2.716;2023-12-20T11:37:14;4;4;
46094;PMS5003;31832;50.746;-2.716;2023-12-20T11:39:39;3;3;
46094;PMS5003;31832;50.746;-2.716;2023-12-20T11:42:05;4;3;
46094;PMS5003;31832;50.746;-2.716;2023-12-20T11:44:30;11;10;
46094;PMS5003;31832;50.746;-2.716;2023-12-20T11:46:56;37;30;
46094;PMS5003;31832;50.746;-2.716;2023-12-20T11:49:23;16;16;
46094;PMS5003;31832;50.746;-2.716;2023-12-20T11:51:46;24;19;
46094;PMS5003;31832;50.746;-2.716;2023-12-20T11:54:13;21;17;
46094;PMS5003;31832;50.746;-2.716;2023-12-20T11:56:37;11;11;
46094;PMS5003;31832;50.746;-2.716;2023-12-20T11:59:03;7;5;
46094;PMS5003;31832;50.746;-2.716;2023-12-20T12:01:28;7;7;
46094;PMS5003;31832;50.746;-2.716;2023-12-20T12:06:19;11;11;
46094;PMS5003;31832;50.746;-2.716;2023-12-20T12:08:44;12;10;
46094;PMS5003;31832;50.746;-2.716;2023-12-20T12:11:10;8;4;
46094;PMS5003;31832;50.746;-2.716;2023-12-20T12:13:35;5;3;
46094;PMS5003;31832;50.746;-2.716;2023-12-20T12:16:00;7;5;
46094;PMS5003;31832;50.746;-2.716;2023-12-20T12:18:26;2;2;
46094;PMS5003;31832;50.746;-2.716;2023-12-20T12:23:22;7;5;
46094;PMS5003;31832;50.746;-2.716;2023-12-20T12:25:42;3;3;
46094;PMS5003;31832;50.746;-2.716;2023-12-20T12:28:08;3;3;
46094;PMS5003;31832;50.746;-2.716;2023-12-20T12:30:33;11;11;
46094;PMS5003;31832;50.746;-2.716;2023-12-20T12:32:58;9;7;
46094;PMS5003;31832;50.746;-2.716;2023-12-20T12:35:24;6;5;
46094;PMS5003;31832;50.746;-2.716;2023-12-20T12:37:48;7;6;
46094;PMS5003;31832;50.746;-2.716;2023-12-20T12:40:14;4;4;
46094;PMS5003;31832;50.746;-2.716;2023-12-20T12:42:39;8;6;
46094;PMS5003;31832;50.746;-2.716;2023-12-20T12:45:05;8;8;
46094;PMS5003;31832;50.746;-2.716;2023-12-20T12:47:30;3;2;
46094;PMS5003;31832;50.746;-2.716;2023-12-20T12:49:56;2;2;
46094;PMS5003;31832;50.746;-2.716;2023-12-20T12:52:21;4;3;
46094;PMS5003;31832;50.746;-2.716;2023-12-20T12:54:46;3;3;
46094;PMS5003;31832;50.746;-2.716;2023-12-20T12:57:11;1;1;
46094;PMS5003;31832;50.746;-2.716;2023-12-20T12:59:37;3;3;
46094;PMS5003;31832;50.746;-2.716;2023-12-20T13:02:02;5;5;
46094;PMS5003;31832;50.746;-2.716;2023-12-20T13:04:27;2;2;
46094;PMS5003;31832;50.746;-2.716;2023-12-20T13:06:52;4;2;
46094;PMS5003;31832;50.746;-2.716;2023-12-20T13:09:18;6;5;
46094;PMS5003;31832;50.746;-2.716;2023-12-20T13:11:43;5;3;
46094;PMS5003;31832;50.746;-2.716;2023-12-20T13:14:08;1;1;
46094;PMS5003;31832;50.746;-2.716;2023-12-20T13:16:33;5;5;
46094;PMS5003;31832;50.746;-2.716;2023-12-20T13:18:59;7;6;
46094;PMS5003;31832;50.746;-2.716;2023-12-20T13:21:24;3;3;
46094;PMS5003;31832;50.746;-2.716;2023-12-20T13:23:50;8;8;
46094;PMS5003;31832;50.746;-2.716;2023-12-20T13:26:16;8;6;
46094;PMS5003;31832;50.746;-2.716;2023-12-20T13:28:41;3;3;
46094;PMS5003;31832;50.746;-2.716;2023-12-20T13:31:06;3;2;
46094;PMS5003;31832;50.746;-2.716;2023-12-20T13:33:32;5;5;
46094;PMS5003;31832;50.746;-2.716;2023-12-20T13:35:57;2;2;
46094;PMS5003;31832;50.746;-2.716;2023-12-20T13:38:22;4;2;
46094;PMS5003;31832;50.746;-2.716;2023-12-20T13:40:47;4;4;
46094;PMS5003;31832;50.746;-2.716;2023-12-20T13:43:13;5;4;
46094;PMS5003;31832;50.746;-2.716;2023-12-20T13:45:38;4;3;
46094;PMS5003;31832;50.746;-2.716;2023-12-20T13:48:03;5;2;
46094;PMS5003;31832;50.746;-2.716;2023-12-20T13:50:28;3;3;
46094;PMS5003;31832;50.746;-2.716;2023-12-20T13:52:53;1;1;
46094;PMS5003;31832;50.746;-2.716;2023-12-20T13:55:19;3;3;
46094;PMS5003;31832;50.746;-2.716;2023-12-20T13:57:44;2;2;
46094;PMS5003;31832;50.746;-2.716;2023-12-20T14:00:10;1;1;
46094;PMS5003;31832;50.746;-2.716;2023-12-20T14:02:35;5;4;
46094;PMS5003;31832;50.746;-2.716;2023-12-20T14:05:01;3;3;
46094;PMS5003;31832;50.746;-2.716;2023-12-20T14:07:25;4;4;
46094;PMS5003;31832;50.746;-2.716;2023-12-20T14:09:51;4;4;
46094;PMS5003;31832;50.746;-2.716;2023-12-20T14:12:16;4;4;
46094;PMS5003;31832;50.746;-2.716;2023-12-20T14:14:41;7;4;
46094;PMS5003;31832;50.746;-2.716;2023-12-20T14:17:06;3;3;
46094;PMS5003;31832;50.746;-2.716;2023-12-20T14:19:32;5;4;
46094;PMS5003;31832;50.746;-2.716;2023-12-20T14:21:57;3;2;
46094;PMS5003;31832;50.746;-2.716;2023-12-20T14:24:22;2;1;
46094;PMS5003;31832;50.746;-2.716;2023-12-20T14:26:47;3;2;
46094;PMS5003;31832;50.746;-2.716;2023-12-20T14:29:12;3;3;
46094;PMS5003;31832;50.746;-2.716;2023-12-20T14:31:38;6;5;
46094;PMS5003;31832;50.746;-2.716;2023-12-20T14:34:03;2;2;
46094;PMS5003;31832;50.746;-2.716;2023-12-20T14:36:28;6;4;
46094;PMS5003;31832;50.746;-2.716;2023-12-20T14:38:54;3;3;
46094;PMS5003;31832;50.746;-2.716;2023-12-20T14:41:19;5;3;
46094;PMS5003;31832;50.746;-2.716;2023-12-20T14:43:45;3;3;
46094;PMS5003;31832;50.746;-2.716;2023-12-20T14:46:11;6;5;
46094;PMS5003;31832;50.746;-2.716;2023-12-20T14:48:36;6;6;
46094;PMS5003;31832;50.746;-2.716;2023-12-20T14:51:02;12;9;
46094;PMS5003;31832;50.746;-2.716;2023-12-20T14:53:27;3;3;
46094;PMS5003;31832;50.746;-2.716;2023-12-20T14:55:52;6;5;
46094;PMS5003;31832;50.746;-2.716;2023-12-20T14:58:17;4;4;
46094;PMS5003;31832;50.746;-2.716;2023-12-20T15:00:43;5;4;
46094;PMS5003;31832;50.746;-2.716;2023-12-20T15:03:08;9;5;
46094;PMS5003;31832;50.746;-2.716;2023-12-20T15:05:34;7;6;
46094;PMS5003;31832;50.746;-2.716;2023-12-20T15:07:59;5;5;
46094;PMS5003;31832;50.746;-2.716;2023-12-20T15:10:24;6;5;
46094;PMS5003;31832;50.746;-2.716;2023-12-20T15:12:50;7;5;
46094;PMS5003;31832;50.746;-2.716;2023-12-20T15:15:16;3;3;
46094;PMS5003;31832;50.746;-2.716;2023-12-20T15:17:41;7;6;
46094;PMS5003;31832;50.746;-2.716;2023-12-20T15:20:07;7;6;
46094;PMS5003;31832;50.746;-2.716;2023-12-20T15:22:32;8;8;
46094;PMS5003;31832;50.746;-2.716;2023-12-20T15:24:57;2;1;
46094;PMS5003;31832;50.746;-2.716;2023-12-20T15:27:22;6;5;
46094;PMS5003;31832;50.746;-2.716;2023-12-20T15:29:47;1;1;
46094;PMS5003;31832;50.746;-2.716;2023-12-20T15:32:13;11;11;
46094;PMS5003;31832;50.746;-2.716;2023-12-20T15:34:38;10;8;
46094;PMS5003;31832;50.746;-2.716;2023-12-20T15:37:04;12;12;
46094;PMS5003;31832;50.746;-2.716;2023-12-20T15:39:29;5;5;
46094;PMS5003;31832;50.746;-2.716;2023-12-20T15:41:54;5;5;
46094;PMS5003;31832;50.746;-2.716;2023-12-20T15:44:19;11;11;
46094;PMS5003;31832;50.746;-2.716;2023-12-20T15:46:45;12;9;
46094;PMS5003;31832;50.746;-2.716;2023-12-20T15:49:10;10;9;
46094;PMS5003;31832;50.746;-2.716;2023-12-20T15:51:35;11;10;
46094;PMS5003;31832;50.746;-2.716;2023-12-20T15:54:00;4;4;
46094;PMS5003;31832;50.746;-2.716;2023-12-20T15:56:26;4;4;
46094;PMS5003;31832;50.746;-2.716;2023-12-20T15:58:51;5;5;
46094;PMS5003;31832;50.746;-2.716;2023-12-20T16:01:16;23;16;
46094;PMS5003;31832;50.746;-2.716;2023-12-20T16:03:41;28;26;
46094;PMS5003;31832;50.746;-2.716;2023-12-20T16:06:07;18;17;
46094;PMS5003;31832;50.746;-2.716;2023-12-20T16:08:32;30;29;
46094;PMS5003;31832;50.746;-2.716;2023-12-20T16:10:58;14;13;
46094;PMS5003;31832;50.746;-2.716;2023-12-20T16:13:23;9;9;
46094;PMS5003;31832;50.746;-2.716;2023-12-20T16:15:49;10;10;
46094;PMS5003;31832;50.746;-2.716;2023-12-20T16:18:14;7;7;
46094;PMS5003;31832;50.746;-2.716;2023-12-20T16:20:39;6;6;
46094;PMS5003;31832;50.746;-2.716;2023-12-20T16:23:04;8;7;
46094;PMS5003;31832;50.746;-2.716;2023-12-20T16:25:30;7;6;
46094;PMS5003;31832;50.746;-2.716;2023-12-20T16:27:55;10;6;